createdAt,value
2019-05-22T00:00:56.808Z,24.90
2019-05-22T00:03:29.535Z,24.90
2019-05-22T00:06:01.035Z,24.90
2019-05-22T00:08:32.373Z,24.80
2019-05-22T00:11:04.649Z,24.80
2019-05-22T00:13:38.799Z,24.80
2019-05-22T00:16:12.318Z,24.80
2019-05-22T00:18:43.182Z,24.70
2019-05-22T00:21:15.212Z,24.70
2019-05-22T00:23:47.913Z,24.80
2019-05-22T00:26:20.395Z,24.80
2019-05-22T00:28:51.795Z,24.80
2019-05-22T00:31:23.278Z,24.80
2019-05-22T00:33:54.312Z,24.80
2019-05-22T00:36:25.071Z,24.90
2019-05-22T00:38:57.582Z,24.90
2019-05-22T00:41:29.743Z,24.90
2019-05-22T00:44:00.769Z,24.90
2019-05-22T00:46:32.166Z,24.90
2019-05-22T00:49:03.225Z,25.00
2019-05-22T00:51:36.208Z,25.00
2019-05-22T00:54:10.429Z,25.00
2019-05-22T00:56:41.130Z,25.00
2019-05-22T00:59:14.656Z,25.00
2019-05-22T01:01:46.190Z,25.00
2019-05-22T01:04:18.403Z,25.10
2019-05-22T01:06:49.904Z,25.10
2019-05-22T01:09:23.408Z,25.10
2019-05-22T01:11:53.395Z,25.00
2019-05-22T01:14:25.085Z,25.10
2019-05-22T01:16:58.118Z,25.10
2019-05-22T01:19:31.680Z,25.10
2019-05-22T01:22:03.763Z,25.10
2019-05-22T01:24:36.061Z,25.10
2019-05-22T01:27:08.497Z,25.10
2019-05-22T01:29:40.569Z,25.10
2019-05-22T01:32:12.905Z,25.10
2019-05-22T01:34:44.295Z,25.20
2019-05-22T01:37:16.452Z,25.20
2019-05-22T01:39:51.003Z,25.20
2019-05-22T01:42:25.442Z,25.30
2019-05-22T01:45:04.966Z,25.30
2019-05-22T01:47:31.059Z,25.30
2019-05-22T01:50:02.605Z,25.40
2019-05-22T01:52:33.854Z,25.40
2019-05-22T01:55:06.393Z,25.40
2019-05-22T01:57:38.786Z,25.50
2019-05-22T02:00:10.905Z,25.50
2019-05-22T02:02:43.288Z,25.50
2019-05-22T02:05:15.803Z,25.50
2019-05-22T02:07:47.018Z,25.60
2019-05-22T02:10:20.229Z,25.60
2019-05-22T02:12:53.333Z,25.60
2019-05-22T02:15:26.282Z,25.60
2019-05-22T02:17:58.403Z,25.60
2019-05-22T02:20:29.794Z,25.70
2019-05-22T02:23:01.121Z,25.70
2019-05-22T02:25:33.545Z,25.70
2019-05-22T02:28:05.147Z,25.60
2019-05-22T02:30:39.134Z,25.60
2019-05-22T02:33:11.822Z,25.70
2019-05-22T02:35:43.379Z,25.60
2019-05-22T02:38:14.257Z,25.60
2019-05-22T02:40:47.093Z,25.70
2019-05-22T02:43:19.865Z,25.60
2019-05-22T02:45:51.456Z,25.70
2019-05-22T02:48:23.977Z,25.70
2019-05-22T02:50:56.030Z,25.70
2019-05-22T02:53:27.607Z,25.70
2019-05-22T02:55:59.856Z,25.80
2019-05-22T02:58:32.724Z,25.70
2019-05-22T03:01:06.596Z,25.70
2019-05-22T03:03:38.817Z,25.80
2019-05-22T03:06:13.361Z,25.80
2019-05-22T03:08:47.169Z,25.90
2019-05-22T03:11:19.233Z,25.90
2019-05-22T03:13:53.118Z,26.00
2019-05-22T03:16:26.687Z,26.10
2019-05-22T03:19:08.172Z,26.10
2019-05-22T03:21:29.928Z,26.10
2019-05-22T03:24:02.241Z,26.20
2019-05-22T03:26:35.497Z,26.30
2019-05-22T03:29:07.987Z,26.40
2019-05-22T03:31:39.209Z,26.40
2019-05-22T03:34:11.364Z,26.50
2019-05-22T03:36:43.045Z,26.70
2019-05-22T03:39:15.306Z,26.80
2019-05-22T03:41:46.286Z,26.90
2019-05-22T03:44:18.598Z,27.00
2019-05-22T03:46:50.778Z,27.10
2019-05-22T03:49:30.543Z,27.10
2019-05-22T03:51:56.762Z,27.30
2019-05-22T03:54:27.828Z,27.30
2019-05-22T03:56:59.820Z,27.40
2019-05-22T03:59:31.080Z,27.50
2019-05-22T04:02:02.530Z,27.60
2019-05-22T04:04:36.774Z,27.70
2019-05-22T04:07:09.403Z,27.70
2019-05-22T04:09:41.492Z,27.80
2019-05-22T04:12:12.755Z,27.90
2019-05-22T04:14:43.983Z,28.00
2019-05-22T04:17:16.012Z,28.10
2019-05-22T04:19:51.382Z,28.20
2019-05-22T04:22:21.056Z,28.30
2019-05-22T04:24:52.579Z,28.50
2019-05-22T04:27:24.160Z,28.60
2019-05-22T04:29:55.421Z,28.60
2019-05-22T04:32:26.812Z,28.70
2019-05-22T04:34:58.736Z,28.70
2019-05-22T04:37:30.566Z,28.70
2019-05-22T04:40:04.731Z,28.80
2019-05-22T04:42:35.831Z,28.90
2019-05-22T04:45:09.587Z,29.00
2019-05-22T04:47:41.360Z,29.10
2019-05-22T04:50:13.026Z,29.20
2019-05-22T04:52:43.933Z,29.20
2019-05-22T04:55:15.703Z,29.30
2019-05-22T04:57:47.101Z,29.30
2019-05-22T05:00:20.108Z,29.40
2019-05-22T05:02:53.151Z,29.40
2019-05-22T05:05:26.488Z,29.50
2019-05-22T05:07:57.399Z,29.60
2019-05-22T05:10:28.864Z,29.70
2019-05-22T05:13:01.375Z,29.70
2019-05-22T05:15:32.273Z,29.80
2019-05-22T05:18:03.189Z,29.90
2019-05-22T05:20:34.089Z,30.00
2019-05-22T05:23:04.910Z,30.10
2019-05-22T05:25:35.915Z,30.20
2019-05-22T05:28:08.595Z,30.20
2019-05-22T05:30:39.518Z,30.30
2019-05-22T05:33:10.443Z,30.40
2019-05-22T05:35:41.423Z,30.50
2019-05-22T05:38:13.782Z,30.70
2019-05-22T05:40:45.203Z,30.90
2019-05-22T05:43:17.933Z,31.00
2019-05-22T05:45:51.138Z,31.10
2019-05-22T05:48:23.606Z,31.20
2019-05-22T05:50:56.775Z,31.30
2019-05-22T05:53:27.852Z,31.30
2019-05-22T05:56:02.450Z,31.40
2019-05-22T05:58:34.112Z,31.50
2019-05-22T06:01:08.667Z,31.50
2019-05-22T06:03:41.753Z,31.60
2019-05-22T06:06:15.542Z,31.70
2019-05-22T06:08:47.585Z,31.80
2019-05-22T06:11:20.824Z,31.80
2019-05-22T06:13:51.667Z,31.80
2019-05-22T06:16:26.033Z,31.80
2019-05-22T06:18:57.296Z,31.70
2019-05-22T06:21:28.435Z,31.80
2019-05-22T06:24:01.818Z,31.80
2019-05-22T06:26:35.285Z,31.90
2019-05-22T06:29:06.928Z,32.00
2019-05-22T06:31:40.492Z,32.10
2019-05-22T06:34:11.934Z,32.20
2019-05-22T06:36:43.522Z,32.40
2019-05-22T06:39:16.544Z,32.50
2019-05-22T06:41:49.777Z,32.70
2019-05-22T06:44:20.750Z,32.80
2019-05-22T06:46:51.837Z,33.00
2019-05-22T06:49:25.013Z,33.10
2019-05-22T06:51:56.053Z,33.20
2019-05-22T06:54:26.916Z,33.30
2019-05-22T06:56:58.071Z,33.40
2019-05-22T06:59:29.367Z,33.40
2019-05-22T07:02:02.013Z,33.50
2019-05-22T07:04:32.848Z,33.70
2019-05-22T07:07:04.421Z,33.70
2019-05-22T07:09:36.783Z,33.80
2019-05-22T07:12:07.671Z,33.90
2019-05-22T07:14:40.849Z,34.00
2019-05-22T07:17:12.263Z,34.00
2019-05-22T07:19:44.992Z,34.10
2019-05-22T07:22:16.590Z,34.20
2019-05-22T07:24:48.162Z,34.40
2019-05-22T07:27:21.515Z,34.50
2019-05-22T07:29:51.622Z,34.60
2019-05-22T07:32:22.942Z,34.70
2019-05-22T07:34:54.153Z,34.70
2019-05-22T07:37:25.887Z,34.60
2019-05-22T07:39:57.309Z,34.60
2019-05-22T07:42:28.000Z,34.60
2019-05-22T07:44:58.986Z,34.50
2019-05-22T07:47:30.282Z,34.50
2019-05-22T07:50:01.515Z,34.50
2019-05-22T07:52:32.883Z,34.60
2019-05-22T07:55:04.457Z,34.60
2019-05-22T07:57:36.699Z,34.70
2019-05-22T08:00:08.130Z,34.80
2019-05-22T08:02:41.430Z,34.80
2019-05-22T08:05:12.853Z,34.90
2019-05-22T08:07:44.788Z,34.90
2019-05-22T08:10:17.209Z,34.90
2019-05-22T08:12:48.760Z,35.00
2019-05-22T08:15:22.321Z,34.90
2019-05-22T08:17:53.491Z,34.90
2019-05-22T08:20:24.587Z,34.90
2019-05-22T08:22:58.053Z,34.90
2019-05-22T08:25:29.676Z,34.80
2019-05-22T08:28:01.011Z,34.80
2019-05-22T08:30:32.268Z,34.80
2019-05-22T08:33:06.232Z,34.80
2019-05-22T08:35:38.411Z,34.90
2019-05-22T08:38:11.173Z,35.00
2019-05-22T08:40:43.603Z,35.00
2019-05-22T08:43:14.551Z,35.00
2019-05-22T08:45:46.906Z,35.10
2019-05-22T08:48:19.155Z,35.10
2019-05-22T08:50:50.597Z,35.10
2019-05-22T08:53:22.346Z,35.10
2019-05-22T08:55:53.720Z,35.10
2019-05-22T08:58:24.963Z,35.00
2019-05-22T09:00:56.086Z,35.00
2019-05-22T09:03:27.666Z,35.00
2019-05-22T09:05:58.627Z,35.00
2019-05-22T09:08:30.522Z,35.00
2019-05-22T09:11:01.907Z,34.90
2019-05-22T09:13:33.437Z,34.90
2019-05-22T09:16:05.376Z,34.90
2019-05-22T09:18:37.488Z,35.00
2019-05-22T09:21:09.205Z,35.00
2019-05-22T09:23:40.338Z,34.90
2019-05-22T09:26:12.375Z,34.80
2019-05-22T09:28:43.540Z,34.70
2019-05-22T09:31:14.599Z,34.70
2019-05-22T09:33:45.793Z,34.60
2019-05-22T09:36:17.195Z,34.60
2019-05-22T09:38:51.891Z,34.50
2019-05-22T09:41:21.037Z,34.50
2019-05-22T09:43:52.004Z,34.50
2019-05-22T09:46:23.740Z,34.50
2019-05-22T09:48:55.196Z,34.50
2019-05-22T09:51:26.069Z,34.50
2019-05-22T09:53:57.917Z,34.50
2019-05-22T09:56:31.013Z,34.50
2019-05-22T09:59:00.838Z,34.40
2019-05-22T10:01:32.322Z,34.40
2019-05-22T10:04:04.181Z,34.40
2019-05-22T10:06:35.345Z,34.40
2019-05-22T10:09:07.951Z,34.40
2019-05-22T10:11:39.192Z,34.40
2019-05-22T10:14:11.160Z,34.30
2019-05-22T10:16:42.916Z,34.20
2019-05-22T10:19:14.478Z,34.20
2019-05-22T10:21:46.348Z,34.10
2019-05-22T10:24:17.587Z,34.00
2019-05-22T10:26:48.933Z,33.90
2019-05-22T10:29:20.033Z,33.80
2019-05-22T10:31:51.190Z,33.80
2019-05-22T10:34:22.386Z,33.70
2019-05-22T10:36:53.414Z,33.60
2019-05-22T10:39:24.795Z,33.50
2019-05-22T10:41:56.357Z,33.40
2019-05-22T10:44:27.351Z,33.30
2019-05-22T10:46:58.400Z,33.20
2019-05-22T10:49:29.393Z,33.10
2019-05-22T10:52:00.471Z,33.00
2019-05-22T10:54:31.341Z,32.90
2019-05-22T10:57:02.855Z,32.90
2019-05-22T10:59:33.826Z,32.70
2019-05-22T11:02:05.143Z,32.60
2019-05-22T11:04:37.623Z,32.50
2019-05-22T11:07:09.278Z,32.40
2019-05-22T11:09:41.946Z,32.30
2019-05-22T11:12:13.595Z,32.10
2019-05-22T11:14:45.935Z,32.00
2019-05-22T11:17:16.867Z,31.90
2019-05-22T11:19:48.000Z,31.80
2019-05-22T11:22:20.163Z,31.70
2019-05-22T11:24:51.423Z,31.50
2019-05-22T11:27:22.551Z,31.50
2019-05-22T11:29:54.193Z,31.40
2019-05-22T11:32:25.110Z,31.20
2019-05-22T11:34:56.142Z,31.20
2019-05-22T11:37:27.601Z,31.10
2019-05-22T11:39:58.848Z,31.00
2019-05-22T11:42:29.723Z,30.90
2019-05-22T11:45:01.193Z,30.80
2019-05-22T11:47:32.452Z,30.70
2019-05-22T11:50:03.295Z,30.60
2019-05-22T11:52:34.457Z,30.60
2019-05-22T11:55:07.712Z,30.50
2019-05-22T11:57:40.407Z,30.40
2019-05-22T12:00:12.628Z,30.30
2019-05-22T12:02:45.123Z,30.20
2019-05-22T12:05:17.962Z,30.10
2019-05-22T12:07:49.474Z,30.10
2019-05-22T12:10:23.072Z,30.00
2019-05-22T12:12:54.687Z,30.00
2019-05-22T12:15:28.451Z,29.90
2019-05-22T12:18:00.026Z,29.80
2019-05-22T12:20:32.901Z,29.70
2019-05-22T12:23:04.725Z,29.70
2019-05-22T12:25:36.421Z,29.60
2019-05-22T12:28:07.123Z,29.60
2019-05-22T12:30:38.423Z,29.50
2019-05-22T12:33:13.646Z,29.50
2019-05-22T12:35:45.056Z,29.40
2019-05-22T12:38:16.252Z,29.30
2019-05-22T12:40:47.735Z,29.30
2019-05-22T12:43:19.504Z,29.20
2019-05-22T12:45:50.642Z,29.20
2019-05-22T12:48:21.623Z,29.10
2019-05-22T12:50:53.671Z,29.10
2019-05-22T12:53:25.073Z,29.10
2019-05-22T12:55:56.803Z,29.10
2019-05-22T12:58:28.261Z,29.00
2019-05-22T13:01:00.899Z,29.00
2019-05-22T13:03:34.639Z,29.00
2019-05-22T13:06:06.428Z,29.00
2019-05-22T13:08:39.061Z,29.00
2019-05-22T13:11:11.156Z,29.00
2019-05-22T13:13:42.118Z,29.00
2019-05-22T13:16:14.014Z,29.00
2019-05-22T13:18:45.853Z,29.00
2019-05-22T13:21:19.866Z,29.00
2019-05-22T13:23:52.543Z,29.00
2019-05-22T13:26:26.162Z,29.00
2019-05-22T13:28:58.175Z,29.00
2019-05-22T13:31:28.914Z,29.00
2019-05-22T13:34:02.555Z,29.10
2019-05-22T13:36:34.179Z,29.00
2019-05-22T13:39:08.430Z,29.00
2019-05-22T13:41:39.727Z,29.10
2019-05-22T13:44:11.246Z,29.00
2019-05-22T13:46:42.192Z,29.10
2019-05-22T13:49:13.345Z,29.00
2019-05-22T13:51:44.812Z,29.00
2019-05-22T13:54:16.661Z,29.00
2019-05-22T13:56:48.261Z,29.00
2019-05-22T13:59:20.110Z,29.00
2019-05-22T14:01:51.782Z,29.00
2019-05-22T14:04:22.741Z,29.00
2019-05-22T14:06:54.117Z,29.00
2019-05-22T14:09:25.283Z,29.00
2019-05-22T14:11:56.967Z,28.90
2019-05-22T14:14:28.489Z,29.00
2019-05-22T14:17:00.158Z,28.90
2019-05-22T14:19:31.754Z,29.00
2019-05-22T14:22:03.284Z,28.90
2019-05-22T14:24:34.354Z,28.90
2019-05-22T14:27:05.674Z,28.90
2019-05-22T14:29:37.405Z,28.90
2019-05-22T14:32:09.685Z,28.90
2019-05-22T14:34:40.514Z,28.90
2019-05-22T14:37:13.476Z,28.90
2019-05-22T14:39:44.301Z,28.80
2019-05-22T14:42:16.476Z,28.90
2019-05-22T14:44:48.109Z,28.80
2019-05-22T14:47:19.256Z,28.80
2019-05-22T14:49:50.264Z,28.80
2019-05-22T14:52:21.829Z,28.80
2019-05-22T14:54:52.928Z,28.70
2019-05-22T14:57:24.854Z,28.70
2019-05-22T14:59:56.376Z,28.70
2019-05-22T15:02:27.437Z,28.70
2019-05-22T15:04:58.996Z,28.70
2019-05-22T15:07:30.161Z,28.70
2019-05-22T15:10:01.229Z,28.60
2019-05-22T15:12:32.736Z,28.70
2019-05-22T15:15:04.221Z,28.70
2019-05-22T15:17:35.958Z,28.70
2019-05-22T15:20:09.118Z,28.60
2019-05-22T15:22:40.567Z,28.60
2019-05-22T15:25:11.962Z,28.60
2019-05-22T15:27:43.093Z,28.60
2019-05-22T15:30:15.219Z,28.60
2019-05-22T15:32:46.717Z,28.60
2019-05-22T15:35:20.122Z,28.60
2019-05-22T15:37:51.098Z,28.60
2019-05-22T15:40:23.217Z,28.60
2019-05-22T15:42:55.331Z,28.60
2019-05-22T15:45:28.627Z,28.60
2019-05-22T15:48:01.786Z,28.60
2019-05-22T15:50:35.484Z,28.60
2019-05-22T15:53:12.279Z,28.60
2019-05-22T15:55:43.041Z,28.60
2019-05-22T15:58:16.638Z,28.50
2019-05-22T16:00:48.712Z,28.50
2019-05-22T16:03:22.742Z,28.50
2019-05-22T16:05:55.246Z,28.50
2019-05-22T16:08:26.595Z,28.50
2019-05-22T16:11:00.249Z,28.50
2019-05-22T16:13:33.965Z,28.50
2019-05-22T16:16:07.669Z,28.50
2019-05-22T16:18:39.600Z,28.40
2019-05-22T16:21:12.101Z,28.40
2019-05-22T16:23:43.839Z,28.40
2019-05-22T16:26:15.801Z,28.40
2019-05-22T16:28:49.627Z,28.40
2019-05-22T16:31:22.244Z,28.30
2019-05-22T16:33:54.961Z,28.40
2019-05-22T16:36:27.033Z,28.40
2019-05-22T16:38:59.833Z,28.30
2019-05-22T16:41:31.413Z,28.40
2019-05-22T16:44:02.962Z,28.30
2019-05-22T16:46:34.856Z,28.30
2019-05-22T16:49:06.642Z,28.30
2019-05-22T16:51:37.733Z,28.30
2019-05-22T16:54:11.090Z,28.30
2019-05-22T16:56:43.547Z,28.30
2019-05-22T16:59:15.597Z,28.30
2019-05-22T17:01:58.713Z,28.30
2019-05-22T17:04:19.858Z,28.20
2019-05-22T17:06:50.768Z,28.20
2019-05-22T17:09:23.353Z,28.20
2019-05-22T17:11:54.786Z,28.20
2019-05-22T17:14:26.296Z,28.20
2019-05-22T17:16:57.629Z,28.20
2019-05-22T17:19:28.700Z,28.20
2019-05-22T17:21:59.533Z,28.20
2019-05-22T17:24:33.984Z,28.20
2019-05-22T17:27:05.686Z,28.10
2019-05-22T17:29:36.829Z,28.20
2019-05-22T17:32:09.373Z,28.10
2019-05-22T17:34:40.313Z,28.10
2019-05-22T17:37:14.753Z,28.10
2019-05-22T17:39:49.708Z,28.10
2019-05-22T17:42:23.057Z,28.00
2019-05-22T17:44:53.976Z,28.00
2019-05-22T17:47:27.542Z,28.00
2019-05-22T17:49:59.584Z,28.00
2019-05-22T17:52:30.785Z,28.00
2019-05-22T17:55:02.003Z,28.00
2019-05-22T17:57:34.327Z,28.00
2019-05-22T18:00:07.628Z,28.00
2019-05-22T18:02:38.929Z,28.00
2019-05-22T18:05:10.907Z,28.00
2019-05-22T18:07:42.940Z,28.00
2019-05-22T18:10:14.598Z,28.00
2019-05-22T18:12:45.343Z,28.00
2019-05-22T18:15:17.370Z,28.00
2019-05-22T18:17:48.598Z,28.00
2019-05-22T18:20:20.319Z,27.90
2019-05-22T18:22:51.731Z,28.00
2019-05-22T18:25:23.051Z,27.90
2019-05-22T18:27:55.858Z,27.90
2019-05-22T18:30:28.628Z,27.90
2019-05-22T18:32:59.736Z,27.90
2019-05-22T18:35:31.061Z,27.90
2019-05-22T18:38:04.807Z,27.90
2019-05-22T18:40:34.894Z,27.90
2019-05-22T18:43:05.802Z,27.90
2019-05-22T18:45:37.865Z,27.90
2019-05-22T18:48:09.141Z,27.90
2019-05-22T18:50:40.380Z,27.90
2019-05-22T18:53:11.891Z,27.90
2019-05-22T18:55:42.654Z,27.90
2019-05-22T18:58:13.800Z,27.90
2019-05-22T19:00:45.173Z,27.90
2019-05-22T19:03:16.160Z,27.80
2019-05-22T19:05:47.292Z,27.80
2019-05-22T19:08:18.322Z,27.80
2019-05-22T19:10:49.400Z,27.80
2019-05-22T19:13:20.456Z,27.80
2019-05-22T19:15:54.582Z,27.70
2019-05-22T19:18:25.660Z,27.70
2019-05-22T19:20:56.483Z,27.70
2019-05-22T19:23:27.509Z,27.70
2019-05-22T19:25:58.735Z,27.60
2019-05-22T19:28:42.975Z,27.60
2019-05-22T19:31:02.364Z,27.60
2019-05-22T19:33:33.305Z,27.60
2019-05-22T19:36:04.826Z,27.60
2019-05-22T19:38:36.251Z,27.60
2019-05-22T19:41:07.413Z,27.50
2019-05-22T19:43:39.021Z,27.50
2019-05-22T19:46:10.605Z,27.50
2019-05-22T19:48:41.877Z,27.50
2019-05-22T19:51:15.211Z,27.50
2019-05-22T19:53:47.578Z,27.50
2019-05-22T19:56:23.628Z,27.50
2019-05-22T19:58:53.199Z,27.50
2019-05-22T20:01:24.355Z,27.50
2019-05-22T20:03:55.496Z,27.50
2019-05-22T20:06:26.800Z,27.50
2019-05-22T20:08:58.570Z,27.50
2019-05-22T20:11:29.918Z,27.50
2019-05-22T20:14:01.222Z,27.50
2019-05-22T20:16:32.469Z,27.50
2019-05-22T20:19:03.258Z,27.50
2019-05-22T20:21:34.232Z,27.40
2019-05-22T20:24:05.652Z,27.40
2019-05-22T20:26:36.995Z,27.40
2019-05-22T20:29:08.597Z,27.50
2019-05-22T20:31:39.939Z,27.50
2019-05-22T20:34:11.324Z,27.50
2019-05-22T20:36:42.778Z,27.60
2019-05-22T20:39:15.813Z,27.60
2019-05-22T20:41:47.201Z,27.50
2019-05-22T20:44:18.161Z,27.60
2019-05-22T20:46:50.016Z,27.60
2019-05-22T20:49:21.191Z,27.60
2019-05-22T20:51:52.484Z,27.60
2019-05-22T20:54:24.390Z,27.60
2019-05-22T20:56:55.866Z,27.60
2019-05-22T20:59:27.576Z,27.60
2019-05-22T21:01:58.521Z,27.60
2019-05-22T21:04:30.805Z,27.60
2019-05-22T21:07:04.604Z,27.60
2019-05-22T21:09:36.321Z,27.60
2019-05-22T21:12:09.508Z,27.60
2019-05-22T21:14:41.117Z,27.60
2019-05-22T21:17:12.309Z,27.60
2019-05-22T21:19:44.684Z,27.60
2019-05-22T21:22:18.888Z,27.60
2019-05-22T21:24:50.999Z,27.60
2019-05-22T21:27:22.680Z,27.60
2019-05-22T21:29:54.786Z,27.60
2019-05-22T21:32:26.579Z,27.60
2019-05-22T21:34:58.699Z,27.60
2019-05-22T21:37:29.763Z,27.60
2019-05-22T21:40:00.953Z,27.60
2019-05-22T21:42:32.468Z,27.60
2019-05-22T21:45:03.466Z,27.60
2019-05-22T21:47:34.904Z,27.60
2019-05-22T21:50:07.871Z,27.60
2019-05-22T21:52:39.127Z,27.50
2019-05-22T21:55:12.111Z,27.50
2019-05-22T21:57:43.587Z,27.50
2019-05-22T22:00:17.969Z,27.50
2019-05-22T22:02:50.443Z,27.50
2019-05-22T22:05:22.359Z,27.40
2019-05-22T22:07:53.415Z,27.40
2019-05-22T22:10:24.725Z,27.40
2019-05-22T22:12:55.850Z,27.40
2019-05-22T22:15:27.278Z,27.40
2019-05-22T22:17:58.310Z,27.40
2019-05-22T22:20:29.409Z,27.30
2019-05-22T22:23:00.767Z,27.30
2019-05-22T22:25:32.212Z,27.30
2019-05-22T22:28:03.380Z,27.40
2019-05-22T22:30:35.803Z,27.30
2019-05-22T22:33:10.217Z,27.30
2019-05-22T22:35:42.188Z,27.30
2019-05-22T22:38:14.802Z,27.30
2019-05-22T22:40:45.782Z,27.20
2019-05-22T22:43:17.540Z,27.20
2019-05-22T22:45:51.903Z,27.20
2019-05-22T22:48:24.366Z,27.20
2019-05-22T22:50:56.914Z,27.20
2019-05-22T22:53:28.197Z,27.20
2019-05-22T22:55:59.825Z,27.20
2019-05-22T22:58:31.627Z,27.10
2019-05-22T23:01:05.309Z,27.20
2019-05-22T23:03:37.370Z,27.20
2019-05-22T23:06:10.411Z,27.10
2019-05-22T23:08:42.063Z,27.20
2019-05-22T23:11:13.398Z,27.20
2019-05-22T23:13:44.490Z,27.20
2019-05-22T23:16:16.491Z,27.20
2019-05-22T23:18:49.780Z,27.20
2019-05-22T23:21:20.059Z,27.20
2019-05-22T23:23:49.736Z,27.20
2019-05-22T23:26:20.928Z,27.20
2019-05-22T23:28:52.536Z,27.30
2019-05-22T23:31:25.077Z,27.30
2019-05-22T23:33:56.575Z,27.30
2019-05-22T23:36:28.574Z,27.30
2019-05-22T23:39:02.052Z,27.40
2019-05-22T23:41:33.410Z,27.40
2019-05-22T23:44:05.315Z,27.40
2019-05-22T23:46:36.457Z,27.50
2019-05-22T23:49:07.250Z,27.50
2019-05-22T23:51:38.632Z,27.60
2019-05-22T23:54:11.053Z,27.70
2019-05-22T23:56:42.863Z,27.80
2019-05-22T23:59:15.376Z,27.90
